Terminal Aerodrome Forecast
Issued by NWS

Home | Current Version | Previous Version | Text Only | Print | Product List | Glossary On
Versions: 1 2 3 4 5 6 7 8 9 10 11 12 13 14 15 16 17
016
FTUS45 KTFX 242345
TAFHVR
TAF
KHVR 242345Z 2500/2524 23012KT P6SM BKN050
      TEMPO 2500/2501 5SM -SN OVC035
     FM250300 23014KT P6SM SCT200
     FM251400 23016G26KT P6SM BKN250 WS020/27045KT
     FM251700 23019G29KT P6SM BKN250=

USA.gov is the U.S. government's official web portal to all federal, state and local government web resources and services.